Time;durP1;ratioP1;P1;durP2;ratioP2;P2;SDS_P1;SDS_P2;PMS_P1;PMS_P2;Temp;Humidity;BMP_temperature;BMP_pressure;BME280_temperature;BME280_humidity;BME280_pressure;Samples;Min_cycle;Max_cycle;Signal;HPM_P1;HPM_P2
2023/09/17 00:02:15;;;;;;;6.60;4.82;;;23.60;57.60;;;;;;4941192;28;20066;-62
2023/09/17 00:04:42;;;;;;;8.90;5.50;;;23.60;57.60;;;;;;4942099;28;20055;-61
2023/09/17 00:07:10;;;;;;;9.18;5.53;;;23.60;57.60;;;;;;4943498;28;20520;-60
2023/09/17 00:09:39;;;;;;;7.45;6.00;;;23.60;57.60;;;;;;4943937;28;20067;-61
2023/09/17 00:12:07;;;;;;;6.30;5.20;;;23.60;57.60;;;;;;4942835;28;20515;-61
2023/09/17 00:14:34;;;;;;;6.60;5.70;;;23.50;57.60;;;;;;4941271;28;21393;-62
2023/09/17 00:17:02;;;;;;;7.65;5.78;;;23.50;57.60;;;;;;4943157;28;20062;-61
2023/09/17 00:19:32;;;;;;;8.18;5.63;;;23.50;57.60;;;;;;4943194;28;20055;-61
2023/09/17 00:22:00;;;;;;;7.07;5.43;;;23.60;57.60;;;;;;4942511;28;20411;-61
2023/09/17 00:24:28;;;;;;;7.90;5.90;;;23.50;57.60;;;;;;4941787;28;20062;-60
2023/09/17 00:26:56;;;;;;;5.88;5.03;;;23.50;57.50;;;;;;4943735;28;20411;-61
2023/09/17 00:29:25;;;;;;;7.00;5.20;;;23.50;57.50;;;;;;4941909;28;20051;-60
2023/09/17 00:31:52;;;;;;;5.80;5.07;;;23.50;57.50;;;;;;4941011;28;20047;-59
2023/09/17 00:34:19;;;;;;;6.88;5.03;;;23.50;57.50;;;;;;4941682;28;20058;-60
2023/09/17 00:36:48;;;;;;;8.00;5.45;;;23.50;57.50;;;;;;4941025;28;20083;-60
2023/09/17 00:39:15;;;;;;;5.70;4.85;;;23.60;58.00;;;;;;4943507;28;20059;-61
2023/09/17 00:41:42;;;;;;;6.97;5.13;;;23.60;57.50;;;;;;4942948;28;20063;-61
2023/09/17 00:44:09;;;;;;;5.63;4.90;;;23.50;57.40;;;;;;4941608;28;20059;-60
2023/09/17 00:46:38;;;;;;;6.72;5.00;;;23.60;58.00;;;;;;4943053;28;20062;-53
2023/09/17 00:49:12;;;;;;;5.72;5.18;;;23.60;57.40;;;;;;4941104;28;20051;-54
2023/09/17 00:51:40;;;;;;;6.38;5.03;;;23.60;57.40;;;;;;4942162;28;20054;-54
2023/09/17 00:54:11;;;;;;;6.90;4.82;;;23.60;57.40;;;;;;4942064;28;20496;-53
2023/09/17 00:56:39;;;;;;;8.55;5.32;;;23.60;57.70;;;;;;4941810;28;20047;-56
2023/09/17 00:59:07;;;;;;;8.50;5.10;;;23.60;57.40;;;;;;4939388;28;20059;-53
2023/09/17 01:01:34;;;;;;;8.45;5.10;;;23.60;57.40;;;;;;4941175;28;20051;-53
2023/09/17 01:04:03;;;;;;;5.90;5.20;;;23.60;57.40;;;;;;4973095;23;20062;-57
2023/09/17 01:06:30;;;;;;;6.32;5.63;;;23.60;57.40;;;;;;4959944;28;20058;-57
2023/09/17 01:08:58;;;;;;;6.30;5.03;;;23.60;57.40;;;;;;4961353;28;20055;-56
2023/09/17 01:11:27;;;;;;;6.88;5.30;;;23.60;57.50;;;;;;4960836;28;20051;-57
2023/09/17 01:14:08;;;;;;;5.57;4.93;;;23.60;57.50;;;;;;4960773;28;20059;-57
2023/09/17 01:16:35;;;;;;;5.63;5.00;;;23.60;57.60;;;;;;4960770;28;20061;-57
2023/09/17 01:19:03;;;;;;;6.70;5.47;;;23.60;57.60;;;;;;4959267;28;20062;-56
2023/09/17 01:21:37;;;;;;;5.97;5.30;;;23.60;57.70;;;;;;4955446;28;20050;-57
2023/09/17 01:24:21;;;;;;;7.22;5.00;;;23.60;57.70;;;;;;4961485;28;20506;-57
2023/09/17 01:26:59;;;;;;;9.13;5.47;;;23.60;57.80;;;;;;4961943;28;20059;-58
2023/09/17 01:29:26;;;;;;;5.90;5.10;;;23.50;57.70;;;;;;4958652;28;20050;-57
2023/09/17 01:31:55;;;;;;;6.15;5.25;;;23.50;57.70;;;;;;4958606;28;20069;-57
2023/09/17 01:34:23;;;;;;;5.93;5.32;;;23.60;57.70;;;;;;4960956;28;20051;-57
2023/09/17 01:36:52;;;;;;;6.20;4.90;;;23.50;57.70;;;;;;4958949;28;20418;-58
2023/09/17 01:39:25;;;;;;;6.50;5.28;;;23.50;57.70;;;;;;4961626;28;20063;-58
2023/09/17 01:41:52;;;;;;;6.22;5.47;;;23.50;57.70;;;;;;4961077;28;20406;-58
2023/09/17 01:44:22;;;;;;;7.80;5.40;;;23.50;57.70;;;;;;4959328;28;20402;-57
2023/09/17 01:46:49;;;;;;;7.53;5.75;;;23.50;57.70;;;;;;4960837;28;20066;-58
2023/09/17 01:49:18;;;;;;;6.50;5.50;;;23.50;57.70;;;;;;4960571;28;20051;-57
2023/09/17 01:51:46;;;;;;;5.72;5.15;;;23.50;57.70;;;;;;4957555;28;20050;-57
2023/09/17 01:54:14;;;;;;;6.95;5.43;;;23.50;57.70;;;;;;4960777;28;20065;-58
2023/09/17 01:56:43;;;;;;;9.02;5.90;;;23.50;57.80;;;;;;4960559;28;20054;-57
2023/09/17 01:59:10;;;;;;;7.28;5.88;;;23.50;57.80;;;;;;4940856;28;21613;-57
2023/09/17 02:01:39;;;;;;;6.43;4.95;;;23.50;57.80;;;;;;4959154;28;20494;-58
2023/09/17 02:04:06;;;;;;;7.43;5.75;;;23.50;57.80;;;;;;4959716;28;20058;-57
2023/09/17 02:06:34;;;;;;;6.47;5.47;;;23.50;57.90;;;;;;4959365;28;20074;-57
2023/09/17 02:09:04;;;;;;;9.13;6.10;;;23.40;57.80;;;;;;4959825;28;20059;-57
2023/09/17 02:11:31;;;;;;;6.78;4.97;;;23.40;57.80;;;;;;4959863;28;20051;-57
2023/09/17 02:13:59;;;;;;;6.25;5.47;;;23.40;57.80;;;;;;4958415;28;20055;-57
2023/09/17 02:16:26;;;;;;;7.15;5.75;;;23.40;57.80;;;;;;4960463;28;20051;-58
2023/09/17 02:18:55;;;;;;;5.65;5.05;;;23.40;57.80;;;;;;4959998;28;20066;-57
2023/09/17 02:21:22;;;;;;;6.82;5.55;;;23.40;57.90;;;;;;4958062;28;20054;-57
2023/09/17 02:23:50;;;;;;;8.15;5.47;;;23.30;57.80;;;;;;4960380;28;20058;-56
2023/09/17 02:26:17;;;;;;;6.20;5.60;;;23.40;57.90;;;;;;4960747;28;20050;-58
2023/09/17 02:28:44;;;;;;;6.63;5.43;;;23.40;57.90;;;;;;4958999;28;20074;-58
2023/09/17 02:31:12;;;;;;;6.88;5.28;;;23.30;57.90;;;;;;4961899;28;20059;-57
2023/09/17 02:33:39;;;;;;;6.35;5.38;;;23.30;57.90;;;;;;4963621;28;20066;-57
2023/09/17 02:36:08;;;;;;;12.43;5.75;;;23.30;57.90;;;;;;4963552;28;20529;-57
2023/09/17 02:38:35;;;;;;;8.45;4.97;;;23.30;57.90;;;;;;4963478;28;20062;-57
2023/09/17 02:41:04;;;;;;;8.52;5.25;;;23.30;57.90;;;;;;4963659;28;20066;-58
2023/09/17 02:43:31;;;;;;;6.45;5.15;;;23.30;58.00;;;;;;4963073;28;20054;-57
2023/09/17 02:45:58;;;;;;;8.52;5.53;;;23.30;58.50;;;;;;4961090;28;20050;-57
2023/09/17 02:48:26;;;;;;;6.82;5.30;;;23.30;58.00;;;;;;4963219;28;20059;-58
2023/09/17 02:50:53;;;;;;;7.75;5.25;;;23.30;58.10;;;;;;4961817;28;20054;-57
2023/09/17 02:53:21;;;;;;;6.20;5.53;;;23.20;58.00;;;;;;4962944;28;20074;-57
2023/09/17 02:55:48;;;;;;;6.43;5.05;;;23.30;58.10;;;;;;4965200;28;20058;-57
2023/09/17 02:58:16;;;;;;;6.20;5.13;;;23.20;58.10;;;;;;4964226;28;20063;-59
2023/09/17 03:00:44;;;;;;;7.28;6.18;;;23.20;58.10;;;;;;4960165;28;20070;-57
2023/09/17 03:03:11;;;;;;;6.35;5.20;;;23.20;58.10;;;;;;4962001;28;20415;-58
2023/09/17 03:05:39;;;;;;;6.45;5.38;;;23.20;58.20;;;;;;4960682;28;20050;-57
2023/09/17 03:08:08;;;;;;;5.72;5.13;;;23.20;58.20;;;;;;4962834;28;20058;-58
2023/09/17 03:10:41;;;;;;;9.02;5.75;;;23.20;58.20;;;;;;4964254;28;20073;-57
2023/09/17 03:13:09;;;;;;;6.28;5.35;;;23.20;58.20;;;;;;4961245;28;20074;-57
2023/09/17 03:15:37;;;;;;;6.43;5.53;;;23.20;58.20;;;;;;4960165;28;20051;-57
2023/09/17 03:18:05;;;;;;;9.40;6.22;;;23.20;58.30;;;;;;4964535;28;20058;-58
2023/09/17 03:20:33;;;;;;;7.80;5.88;;;23.20;58.30;;;;;;4961372;28;20058;-58
2023/09/17 03:23:02;;;;;;;6.88;5.38;;;23.20;58.30;;;;;;4962991;28;20426;-57
2023/09/17 03:25:31;;;;;;;8.30;5.93;;;23.20;58.30;;;;;;4962700;28;20514;-57
2023/09/17 03:28:00;;;;;;;7.55;5.22;;;23.10;58.30;;;;;;4963458;28;20059;-58
2023/09/17 03:30:27;;;;;;;6.13;5.03;;;23.10;58.40;;;;;;4960959;28;20051;-58
2023/09/17 03:32:54;;;;;;;6.93;5.03;;;23.10;58.40;;;;;;4961305;28;20051;-57
2023/09/17 03:35:22;;;;;;;6.38;5.20;;;23.10;58.40;;;;;;4961058;28;20451;-57
2023/09/17 03:37:50;;;;;;;7.32;5.57;;;23.10;58.90;;;;;;4962458;28;20051;-57
2023/09/17 03:40:17;;;;;;;8.88;5.55;;;23.10;58.40;;;;;;4961374;28;21434;-58
2023/09/17 03:42:47;;;;;;;5.93;5.15;;;23.10;58.40;;;;;;4962417;28;20054;-58
2023/09/17 03:45:15;;;;;;;5.85;4.90;;;23.10;58.40;;;;;;4961915;28;20509;-57
2023/09/17 03:47:45;;;;;;;8.10;5.18;;;23.10;58.50;;;;;;4962161;28;20079;-57
2023/09/17 03:50:13;;;;;;;8.38;5.05;;;23.10;58.50;;;;;;4961899;28;20058;-57
2023/09/17 03:52:43;;;;;;;7.43;5.57;;;23.10;58.50;;;;;;4959666;28;20419;-58
2023/09/17 03:55:11;;;;;;;6.88;5.32;;;23.00;58.50;;;;;;4962503;28;20704;-57
2023/09/17 03:57:39;;;;;;;7.78;5.75;;;23.00;58.50;;;;;;4962874;28;20071;-58
2023/09/17 04:00:10;;;;;;;6.53;5.18;;;23.00;58.50;;;;;;4960064;28;20542;-57
2023/09/17 04:02:38;;;;;;;5.82;5.20;;;23.00;58.60;;;;;;4962653;28;20055;-58
2023/09/17 04:05:08;;;;;;;6.47;5.32;;;23.00;58.60;;;;;;4961611;28;20054;-57
2023/09/17 04:07:36;;;;;;;8.75;5.45;;;23.00;58.60;;;;;;4960220;28;20055;-57
2023/09/17 04:10:05;;;;;;;7.32;4.95;;;23.00;58.60;;;;;;4960279;28;20113;-57
2023/09/17 04:12:34;;;;;;;6.95;5.57;;;23.00;58.60;;;;;;4960096;28;20051;-56
2023/09/17 04:15:07;;;;;;;6.60;5.10;;;23.00;58.60;;;;;;4962095;28;20066;-57
2023/09/17 04:17:35;;;;;;;6.93;5.57;;;23.00;58.60;;;;;;4956357;28;20494;-57
2023/09/17 04:20:09;;;;;;;5.95;5.22;;;22.90;58.60;;;;;;4956189;28;20502;-58
2023/09/17 04:22:36;;;;;;;6.25;5.38;;;22.90;58.60;;;;;;4958678;28;20051;-58
2023/09/17 04:25:04;;;;;;;6.38;5.30;;;22.90;58.60;;;;;;4956735;28;20545;-58
2023/09/17 04:27:32;;;;;;;7.57;5.13;;;22.90;58.60;;;;;;4960019;28;20589;-57
2023/09/17 04:29:59;;;;;;;11.88;5.80;;;22.90;58.60;;;;;;4960694;28;20066;-56
2023/09/17 04:32:26;;;;;;;6.15;5.10;;;22.90;58.60;;;;;;4958690;28;20057;-58
2023/09/17 04:34:54;;;;;;;6.43;5.35;;;22.90;58.70;;;;;;4962126;28;20058;-57
2023/09/17 04:37:23;;;;;;;7.45;4.80;;;22.90;58.70;;;;;;4959983;28;20054;-58
2023/09/17 04:39:50;;;;;;;6.50;5.30;;;22.90;58.70;;;;;;4962434;28;20050;-57
2023/09/17 04:42:17;;;;;;;7.50;5.10;;;22.80;58.60;;;;;;4962382;28;20054;-58
2023/09/17 04:44:45;;;;;;;6.93;5.32;;;22.80;58.70;;;;;;4960763;28;20051;-57
2023/09/17 04:47:12;;;;;;;6.57;4.90;;;22.80;58.60;;;;;;4962011;28;20063;-56
2023/09/17 04:49:39;;;;;;;6.18;5.30;;;22.80;58.70;;;;;;4961211;28;20059;-58
2023/09/17 04:52:07;;;;;;;6.18;5.30;;;22.80;58.70;;;;;;4960738;28;20059;-57
2023/09/17 04:54:35;;;;;;;6.68;5.10;;;22.80;58.80;;;;;;4960154;28;20046;-57
2023/09/17 04:57:03;;;;;;;5.93;5.32;;;22.80;58.80;;;;;;4946812;28;20059;-57
2023/09/17 04:59:31;;;;;;;5.53;4.70;;;22.80;58.80;;;;;;4959521;28;20069;-57
2023/09/17 05:01:58;;;;;;;5.90;4.70;;;22.70;58.80;;;;;;4960492;28;20063;-56
2023/09/17 05:04:26;;;;;;;6.70;5.28;;;22.70;58.80;;;;;;4960388;28;20546;-57
2023/09/17 05:06:53;;;;;;;7.68;4.93;;;22.70;58.80;;;;;;4959760;28;20058;-57
2023/09/17 05:09:22;;;;;;;5.93;5.00;;;22.70;58.80;;;;;;4961701;28;20047;-58
2023/09/17 05:11:51;;;;;;;6.97;5.47;;;22.70;58.80;;;;;;4961753;28;20050;-57
2023/09/17 05:14:18;;;;;;;6.20;5.10;;;22.70;58.80;;;;;;4960904;28;20054;-57
2023/09/17 05:16:45;;;;;;;5.70;5.07;;;22.60;58.80;;;;;;4961495;28;20530;-58
2023/09/17 05:19:13;;;;;;;5.63;5.00;;;22.60;58.80;;;;;;4961568;28;20062;-57
2023/09/17 05:21:40;;;;;;;7.22;4.80;;;22.70;58.80;;;;;;4959123;28;20486;-58
2023/09/17 05:24:08;;;;;;;4.95;4.45;;;22.60;58.80;;;;;;4961078;28;20065;-57
2023/09/17 05:26:35;;;;;;;7.72;5.10;;;22.60;58.80;;;;;;4959280;28;20050;-54
2023/09/17 05:29:04;;;;;;;6.75;4.88;;;22.60;58.80;;;;;;4960626;28;20059;-57
2023/09/17 05:31:32;;;;;;;9.05;5.22;;;22.60;58.80;;;;;;4959505;28;20058;-57
2023/09/17 05:34:00;;;;;;;7.60;5.20;;;22.60;58.80;;;;;;4962656;28;20054;-56
2023/09/17 05:36:27;;;;;;;7.03;4.90;;;22.50;58.80;;;;;;4956483;28;20483;-57
2023/09/17 05:38:55;;;;;;;5.97;5.00;;;22.50;58.80;;;;;;4944011;28;20055;-56
2023/09/17 05:41:22;;;;;;;6.68;4.35;;;22.50;58.80;;;;;;4959662;28;20742;-57
2023/09/17 05:43:49;;;;;;;5.40;4.55;;;22.50;58.80;;;;;;4957649;28;20047;-57
2023/09/17 05:46:18;;;;;;;6.40;5.32;;;22.50;58.80;;;;;;4961638;28;20435;-58
2023/09/17 05:48:45;;;;;;;7.35;5.35;;;22.50;58.90;;;;;;4960956;28;20054;-57
2023/09/17 05:51:12;;;;;;;5.30;4.78;;;22.50;58.90;;;;;;4957220;28;20066;-57
2023/09/17 05:53:41;;;;;;;5.93;4.90;;;22.40;58.80;;;;;;4957677;28;20756;-57
2023/09/17 05:56:08;;;;;;;6.45;5.43;;;22.40;58.80;;;;;;4959797;28;20059;-57
2023/09/17 05:58:35;;;;;;;5.13;4.60;;;22.40;58.90;;;;;;4961715;28;20510;-57
2023/09/17 06:01:04;;;;;;;5.50;4.75;;;22.40;58.90;;;;;;4958021;28;20051;-58
2023/09/17 06:03:33;;;;;;;7.65;5.05;;;22.40;59.00;;;;;;4957316;28;20054;-57
2023/09/17 06:06:02;;;;;;;6.38;5.15;;;22.40;59.00;;;;;;4960693;28;20602;-57
2023/09/17 06:08:30;;;;;;;6.43;5.38;;;22.40;59.10;;;;;;4963691;28;20070;-58
2023/09/17 06:14:19;;;;;;;8.98;5.60;;;22.30;59.20;;;;;;4971751;28;20037;-58
2023/09/17 06:16:46;;;;;;;5.65;4.47;;;22.30;59.10;;;;;;4962336;28;20519;-57
2023/09/17 06:19:15;;;;;;;6.97;5.30;;;22.30;59.20;;;;;;4964610;28;20062;-57
2023/09/17 06:21:42;;;;;;;5.63;4.88;;;22.30;59.30;;;;;;4961576;28;20062;-57
2023/09/17 06:24:09;;;;;;;6.05;5.43;;;22.30;59.30;;;;;;4961987;28;20491;-58
2023/09/17 06:26:36;;;;;;;6.22;4.72;;;22.30;59.40;;;;;;4962924;28;20050;-58
2023/09/17 06:29:04;;;;;;;7.07;5.70;;;22.30;59.40;;;;;;4962007;28;20422;-57
2023/09/17 06:31:31;;;;;;;6.53;5.40;;;22.30;59.50;;;;;;4961495;28;20054;-58
2023/09/17 06:33:59;;;;;;;6.68;5.65;;;22.30;59.50;;;;;;4963115;28;20518;-57
2023/09/17 06:36:28;;;;;;;8.70;5.50;;;22.30;59.60;;;;;;4961379;28;20073;-57
2023/09/17 06:38:56;;;;;;;6.22;4.95;;;22.30;59.70;;;;;;4964598;28;20059;-57
2023/09/17 06:41:23;;;;;;;7.15;5.88;;;22.30;59.70;;;;;;4964626;28;20380;-57
2023/09/17 06:43:50;;;;;;;7.03;5.85;;;22.30;59.80;;;;;;4965522;28;20058;-58
2023/09/17 06:46:18;;;;;;;11.45;6.18;;;22.30;59.90;;;;;;4965078;28;20051;-58
2023/09/17 06:48:45;;;;;;;8.23;5.72;;;22.30;59.90;;;;;;4965501;28;20058;-57
2023/09/17 06:51:12;;;;;;;6.43;5.65;;;22.30;60.00;;;;;;4964101;28;20059;-57
2023/09/17 06:53:41;;;;;;;6.80;5.40;;;22.30;60.00;;;;;;4964690;28;20629;-57
2023/09/17 06:56:09;;;;;;;6.47;5.07;;;22.40;60.10;;;;;;4965454;28;20055;-58
2023/09/17 06:58:36;;;;;;;6.85;5.65;;;22.40;60.10;;;;;;4965655;28;20443;-57
2023/09/17 07:01:03;;;;;;;7.18;5.68;;;22.40;60.20;;;;;;4965341;28;20430;-57
2023/09/17 07:03:31;;;;;;;7.05;5.53;;;22.40;60.20;;;;;;4963177;28;20422;-58
2023/09/17 07:05:58;;;;;;;8.50;5.90;;;22.40;60.20;;;;;;4963585;28;20059;-58
2023/09/17 07:08:25;;;;;;;6.03;5.25;;;22.50;60.40;;;;;;4963000;28;20062;-58
2023/09/17 07:10:54;;;;;;;6.97;5.43;;;22.50;60.40;;;;;;4965205;28;20438;-56
2023/09/17 07:13:21;;;;;;;6.10;4.97;;;22.50;60.50;;;;;;4965180;28;20518;-57
2023/09/17 07:15:48;;;;;;;6.20;5.53;;;22.60;60.50;;;;;;4964274;28;20065;-57
2023/09/17 07:18:15;;;;;;;6.78;5.20;;;22.60;60.70;;;;;;4962963;28;20046;-57
2023/09/17 07:20:43;;;;;;;8.95;5.18;;;22.70;60.80;;;;;;4964778;28;20058;-58
2023/09/17 07:23:10;;;;;;;6.78;5.30;;;22.70;60.90;;;;;;4963302;28;20391;-60
2023/09/17 07:25:38;;;;;;;6.57;4.93;;;22.70;60.80;;;;;;4964602;28;20050;-58
2023/09/17 07:28:08;;;;;;;5.82;5.07;;;22.70;60.90;;;;;;4964762;28;20058;-58
2023/09/17 07:30:36;;;;;;;7.03;4.90;;;22.80;61.10;;;;;;4963955;28;20058;-58
2023/09/17 07:33:03;;;;;;;5.22;4.70;;;22.80;61.10;;;;;;4963013;28;20055;-57
2023/09/17 07:35:31;;;;;;;6.88;5.13;;;22.90;61.20;;;;;;4964319;28;20062;-58
2023/09/17 07:37:59;;;;;;;6.03;4.40;;;22.90;61.40;;;;;;4962000;28;20066;-58
2023/09/17 07:40:26;;;;;;;8.45;4.60;;;22.90;61.40;;;;;;4963955;28;20059;-57
2023/09/17 07:42:54;;;;;;;7.97;4.13;;;23.00;61.40;;;;;;4962154;28;20059;-57
2023/09/17 07:45:22;;;;;;;6.32;4.60;;;23.00;61.30;;;;;;4964250;28;20418;-57
2023/09/17 07:47:49;;;;;;;4.88;4.30;;;23.00;61.20;;;;;;4963119;28;20446;-55
2023/09/17 07:50:17;;;;;;;9.60;4.72;;;23.10;61.10;;;;;;4963721;28;20055;-57
2023/09/17 07:52:45;;;;;;;7.43;4.82;;;23.10;61.10;;;;;;4961250;28;20047;-57
2023/09/17 07:55:12;;;;;;;5.63;4.50;;;23.10;61.00;;;;;;4964465;28;20061;-57
2023/09/17 07:57:39;;;;;;;5.20;4.70;;;23.20;61.10;;;;;;4963773;28;20065;-57
2023/09/17 08:00:08;;;;;;;4.78;4.03;;;23.20;61.10;;;;;;4962313;28;20061;-56
2023/09/17 08:02:36;;;;;;;5.90;4.60;;;23.30;61.20;;;;;;4963712;28;20058;-57
2023/09/17 08:05:04;;;;;;;5.03;4.43;;;23.30;62.00;;;;;;4963865;28;20051;-58
2023/09/17 08:07:31;;;;;;;8.60;3.90;;;23.30;61.20;;;;;;4961446;28;20054;-57
2023/09/17 08:09:58;;;;;;;6.78;4.43;;;23.40;61.20;;;;;;4963622;28;20517;-60
2023/09/17 08:12:26;;;;;;;6.22;4.28;;;23.50;61.20;;;;;;4963679;28;20055;-56
2023/09/17 08:14:53;;;;;;;4.72;3.63;;;23.50;61.10;;;;;;4963851;28;20058;-54
2023/09/17 08:17:20;;;;;;;5.90;3.90;;;23.50;60.60;;;;;;4962841;28;20601;-56
2023/09/17 08:19:49;;;;;;;4.22;3.33;;;23.60;60.40;;;;;;4964251;28;20062;-57
2023/09/17 08:22:16;;;;;;;6.45;4.05;;;23.60;60.40;;;;;;4961392;28;20061;-54
2023/09/17 08:24:43;;;;;;;6.47;4.03;;;23.60;61.00;;;;;;4963488;28;20057;-56
2023/09/17 08:27:11;;;;;;;7.13;3.60;;;23.70;60.40;;;;;;4963549;28;20058;-58
2023/09/17 08:29:38;;;;;;;7.50;3.65;;;23.70;60.20;;;;;;4964709;28;20059;-55
2023/09/17 08:32:07;;;;;;;4.18;3.22;;;23.70;60.00;;;;;;4961576;28;20065;-57
2023/09/17 08:34:34;;;;;;;4.78;3.67;;;23.80;59.90;;;;;;4961960;28;20042;-57
2023/09/17 08:37:04;;;;;;;6.90;3.60;;;23.80;59.90;;;;;;4958782;28;20055;-58
2023/09/17 08:39:32;;;;;;;4.07;3.47;;;23.80;59.70;;;;;;4957970;28;20059;-57
2023/09/17 08:42:00;;;;;;;4.95;3.55;;;23.90;59.70;;;;;;4961833;28;20074;-54
2023/09/17 08:44:30;;;;;;;5.18;3.30;;;23.90;59.70;;;;;;4961668;28;20643;-56
2023/09/17 08:47:00;;;;;;;4.85;3.20;;;24.00;59.60;;;;;;4962841;28;20058;-55
2023/09/17 08:49:28;;;;;;;5.75;3.40;;;24.00;59.60;;;;;;4963093;28;20062;-57
2023/09/17 08:51:58;;;;;;;5.10;3.25;;;24.00;59.40;;;;;;4958920;28;20077;-56
2023/09/17 08:54:34;;;;;;;4.30;3.17;;;24.00;59.10;;;;;;4960875;28;20430;-56
2023/09/17 08:57:05;;;;;;;4.22;3.40;;;24.10;59.10;;;;;;4959506;28;20062;-56
2023/09/17 08:59:45;;;;;;;4.40;3.40;;;24.10;59.00;;;;;;4960322;28;20061;-57
2023/09/17 09:02:18;;;;;;;7.10;3.20;;;24.10;58.90;;;;;;4961478;28;20059;-58
2023/09/17 09:04:50;;;;;;;4.55;3.40;;;24.20;58.90;;;;;;4960281;28;20065;-57
2023/09/17 09:07:21;;;;;;;6.15;3.50;;;24.20;58.90;;;;;;4958897;28;20494;-56
2023/09/17 09:09:52;;;;;;;4.20;3.55;;;24.20;59.20;;;;;;4959187;28;20061;-56
2023/09/17 09:12:20;;;;;;;4.30;3.22;;;24.30;59.10;;;;;;4959242;28;20054;-58
2023/09/17 09:14:48;;;;;;;4.85;3.25;;;24.30;59.00;;;;;;4960223;28;20058;-56
2023/09/17 09:17:15;;;;;;;5.28;3.58;;;24.40;58.90;;;;;;4959129;28;20054;-56
2023/09/17 09:19:43;;;;;;;6.47;3.45;;;24.40;59.00;;;;;;4958779;28;20058;-56
2023/09/17 09:22:10;;;;;;;6.18;3.70;;;24.50;58.80;;;;;;4957914;28;20063;-56
2023/09/17 09:24:42;;;;;;;5.72;3.58;;;24.50;58.60;;;;;;4960258;28;20403;-57
2023/09/17 09:27:11;;;;;;;8.90;4.57;;;24.60;58.60;;;;;;4960107;28;20058;-57
2023/09/17 09:29:42;;;;;;;3.95;3.53;;;24.60;58.90;;;;;;4960474;28;20050;-57
2023/09/17 09:32:10;;;;;;;5.53;3.75;;;24.70;58.80;;;;;;4956829;28;20051;-58
2023/09/17 09:34:37;;;;;;;4.93;3.53;;;24.70;58.70;;;;;;4957225;28;20051;-48
2023/09/17 09:37:06;;;;;;;5.03;3.05;;;24.70;58.20;;;;;;4957885;28;20058;-56
2023/09/17 09:39:34;;;;;;;5.38;3.80;;;24.70;57.80;;;;;;4960475;28;20055;-57
2023/09/17 09:42:02;;;;;;;4.68;3.42;;;24.70;57.90;;;;;;4963296;28;20066;-56
2023/09/17 09:44:32;;;;;;;4.35;3.25;;;24.70;58.10;;;;;;4964982;28;20058;-56
2023/09/17 09:47:02;;;;;;;4.60;3.28;;;24.80;58.60;;;;;;4964789;28;20047;-57
2023/09/17 09:49:39;;;;;;;5.20;3.60;;;24.80;58.10;;;;;;4964324;28;20046;-57
2023/09/17 09:52:06;;;;;;;5.53;3.20;;;24.90;58.10;;;;;;4963309;28;20055;-57
2023/09/17 09:54:34;;;;;;;4.32;3.33;;;24.90;58.10;;;;;;4964784;28;20511;-56
2023/09/17 09:57:04;;;;;;;4.22;3.15;;;25.00;58.00;;;;;;4963342;28;20078;-55
2023/09/17 09:59:34;;;;;;;7.63;3.55;;;25.00;57.90;;;;;;4963778;28;20057;-57
2023/09/17 10:02:03;;;;;;;6.13;3.58;;;25.00;57.80;;;;;;4963674;28;20055;-55
2023/09/17 10:04:31;;;;;;;4.78;3.47;;;25.00;57.50;;;;;;4962521;28;20066;-57
2023/09/17 10:06:59;;;;;;;7.78;3.55;;;25.00;57.20;;;;;;4962806;28;20059;-53
2023/09/17 10:09:28;;;;;;;4.70;3.30;;;25.10;57.00;;;;;;4964471;28;20055;-55
2023/09/17 10:11:56;;;;;;;4.57;3.40;;;25.10;56.70;;;;;;4964475;28;20050;-57
2023/09/17 10:14:26;;;;;;;5.47;3.45;;;25.20;56.90;;;;;;4961648;28;20058;-57
2023/09/17 10:16:55;;;;;;;4.50;3.30;;;25.20;56.80;;;;;;4962124;28;20054;-56
2023/09/17 10:19:24;;;;;;;3.60;2.58;;;25.20;56.70;;;;;;4963268;28;20482;-59
2023/09/17 10:21:53;;;;;;;4.60;3.15;;;25.20;56.80;;;;;;4962691;28;20429;-58
2023/09/17 10:24:21;;;;;;;4.38;3.28;;;25.30;56.70;;;;;;4963761;28;20069;-57
2023/09/17 10:26:49;;;;;;;3.47;2.78;;;25.30;56.30;;;;;;4964085;28;20065;-50
2023/09/17 10:29:19;;;;;;;5.72;2.97;;;25.40;55.90;;;;;;4962171;28;20050;-55
2023/09/17 10:31:49;;;;;;;2.70;2.50;;;25.40;55.90;;;;;;4960874;28;20055;-56
2023/09/17 10:34:19;;;;;;;6.88;2.97;;;25.40;55.80;;;;;;4960881;28;20062;-53
2023/09/17 10:36:47;;;;;;;6.15;3.33;;;25.40;55.40;;;;;;4960774;28;20067;-54
2023/09/17 10:39:15;;;;;;;5.65;2.90;;;25.50;55.60;;;;;;4964097;28;20134;-54
2023/09/17 10:41:44;;;;;;;4.68;2.92;;;25.50;55.70;;;;;;4963455;28;20062;-55
2023/09/17 10:44:15;;;;;;;3.42;2.85;;;25.60;55.60;;;;;;4963921;28;20066;-48
2023/09/17 10:46:45;;;;;;;4.97;3.10;;;25.50;55.30;;;;;;4960873;28;20057;-48
2023/09/17 10:49:14;;;;;;;3.70;2.45;;;25.60;55.20;;;;;;4960884;28;20055;-55
2023/09/17 10:51:44;;;;;;;3.35;2.72;;;25.60;55.40;;;;;;4957234;28;20077;-56
2023/09/17 10:54:11;;;;;;;6.03;3.13;;;25.60;55.10;;;;;;4963452;28;20562;-50
2023/09/17 10:56:41;;;;;;;3.10;2.50;;;25.70;55.30;;;;;;4962628;28;20399;-54
2023/09/17 10:59:13;;;;;;;3.30;2.70;;;25.70;55.20;;;;;;4961480;28;20066;-55
2023/09/17 11:01:44;;;;;;;4.45;2.72;;;25.80;55.20;;;;;;4965007;28;20058;-56
2023/09/17 11:04:16;;;;;;;7.05;2.92;;;25.80;55.10;;;;;;4960606;28;20404;-43
2023/09/17 11:06:50;;;;;;;6.20;2.88;;;25.80;55.00;;;;;;4962173;28;20061;-56
2023/09/17 11:09:18;;;;;;;3.88;2.72;;;25.80;54.80;;;;;;4964077;28;20050;-56
2023/09/17 11:11:45;;;;;;;5.28;2.80;;;25.90;54.90;;;;;;4962639;28;20407;-57
2023/09/17 11:14:13;;;;;;;4.03;2.50;;;25.90;54.60;;;;;;4962443;28;20414;-56
2023/09/17 11:16:42;;;;;;;4.40;2.40;;;25.90;54.50;;;;;;4962782;28;20062;-46
2023/09/17 11:19:14;;;;;;;3.22;2.00;;;26.00;54.40;;;;;;4963950;28;20051;-47
2023/09/17 11:21:42;;;;;;;3.03;2.22;;;26.10;53.40;;;;;;4960800;28;20062;-54
2023/09/17 11:24:12;;;;;;;3.55;2.00;;;26.10;53.20;;;;;;4959094;28;20406;-54
2023/09/17 11:26:41;;;;;;;2.53;1.88;;;26.10;52.90;;;;;;4960211;28;20050;-53
2023/09/17 11:29:10;;;;;;;2.45;2.15;;;26.10;53.10;;;;;;4957168;28;20062;-55
2023/09/17 11:32:01;;;;;;;2.63;1.95;;;26.10;53.00;;;;;;4961957;28;20054;-55
2023/09/17 11:34:29;;;;;;;3.92;1.95;;;26.20;52.90;;;;;;4958938;28;20396;-51
2023/09/17 11:36:57;;;;;;;2.22;1.88;;;26.20;52.80;;;;;;4959772;28;20054;-49
2023/09/17 11:39:26;;;;;;;3.55;2.78;;;26.20;52.80;;;;;;4960724;28;20054;-51
2023/09/17 11:42:03;;;;;;;3.28;2.45;;;26.20;52.50;;;;;;4959490;28;20058;-50
2023/09/17 11:44:35;;;;;;;3.90;2.78;;;26.20;52.70;;;;;;4960048;28;20055;-54
2023/09/17 11:47:04;;;;;;;3.42;2.40;;;26.30;53.00;;;;;;4961310;28;20062;-52
2023/09/17 11:49:32;;;;;;;3.33;2.40;;;26.30;53.10;;;;;;4960277;28;20058;-52
2023/09/17 11:51:59;;;;;;;2.60;2.40;;;26.30;53.20;;;;;;4959943;28;20059;-57
2023/09/17 11:54:33;;;;;;;2.72;2.28;;;26.30;53.30;;;;;;4962151;28;20070;-51
2023/09/17 11:57:00;;;;;;;3.97;2.40;;;26.40;53.60;;;;;;4962617;28;20054;-52
2023/09/17 11:59:28;;;;;;;3.22;2.30;;;26.40;53.60;;;;;;4959943;28;20061;-54
2023/09/17 12:01:57;;;;;;;3.63;2.42;;;26.40;53.70;;;;;;4961979;28;20054;-57
2023/09/17 12:04:26;;;;;;;3.65;1.98;;;26.50;53.50;;;;;;4958633;28;20073;-54
2023/09/17 12:06:55;;;;;;;4.15;2.30;;;26.50;53.40;;;;;;4960873;28;20435;-50
2023/09/17 12:09:31;;;;;;;5.00;2.25;;;26.50;53.50;;;;;;4961521;28;20517;-52
2023/09/17 12:12:00;;;;;;;3.97;2.17;;;26.60;53.30;;;;;;4962178;28;20058;-48
2023/09/17 12:14:27;;;;;;;2.55;1.70;;;26.60;53.30;;;;;;4958749;28;21536;-53
2023/09/17 12:16:55;;;;;;;3.67;2.28;;;26.70;53.40;;;;;;4959632;28;20065;-45
2023/09/17 12:19:23;;;;;;;2.58;1.92;;;26.80;53.30;;;;;;4958303;28;20046;-55
2023/09/17 12:21:54;;;;;;;3.10;2.15;;;26.80;53.70;;;;;;4962931;28;20054;-55
2023/09/17 12:24:25;;;;;;;2.22;1.80;;;26.80;53.30;;;;;;4959031;28;20061;-56
2023/09/17 12:27:19;;;;;;;3.35;2.30;;;26.90;53.00;;;;;;4962240;28;20054;-55
2023/09/17 12:29:47;;;;;;;9.95;2.25;;;27.00;52.70;;;;;;4961773;28;21105;-55
2023/09/17 12:32:19;;;;;;;6.30;2.15;;;27.00;52.90;;;;;;4959817;28;20058;-56
2023/09/17 12:34:49;;;;;;;3.60;1.80;;;27.00;52.70;;;;;;4959895;28;20061;-53
2023/09/17 12:37:17;;;;;;;4.28;2.22;;;27.10;52.80;;;;;;4960541;28;20055;-54
2023/09/17 12:39:46;;;;;;;3.75;1.92;;;27.10;52.80;;;;;;4961195;28;20078;-57
2023/09/17 12:42:15;;;;;;;2.25;1.70;;;27.20;52.70;;;;;;4959149;28;20063;-48
2023/09/17 12:44:43;;;;;;;1.90;1.70;;;27.20;52.10;;;;;;4961112;28;20062;-45
2023/09/17 12:47:11;;;;;;;5.55;2.17;;;27.30;51.80;;;;;;4958326;28;20053;-51
2023/09/17 12:49:38;;;;;;;2.42;1.83;;;27.30;51.90;;;;;;4958189;28;20415;-54
2023/09/17 12:52:06;;;;;;;3.28;1.70;;;27.30;51.80;;;;;;4956882;28;20058;-52
2023/09/17 12:54:33;;;;;;;2.40;1.40;;;27.40;51.80;;;;;;4957335;28;20410;-55
2023/09/17 12:57:01;;;;;;;4.13;1.90;;;27.40;51.30;;;;;;4961784;28;20054;-53